Time;durP1;ratioP1;P1;durP2;ratioP2;P2;SDS_P1;SDS_P2;PMS_P1;PMS_P2;Temp;Humidity;BMP_temperature;BMP_pressure;BME280_temperature;BME280_humidity;BME280_pressure;Samples;Min_cycle;Max_cycle;Signal;HPM_P1;HPM_P2
2023/07/10 00:02:13;;;;;;;5.43;2.20;;;;;;;;;;5222905;28;20036;-71
2023/07/10 00:04:43;;;;;;;7.60;2.20;;;;;;;;;;5223802;28;20386;-71
2023/07/10 00:07:13;;;;;;;6.93;2.58;;;;;;;;;;5223715;28;20486;-70
2023/07/10 00:09:44;;;;;;;7.85;2.10;;;;;;;;;;5223460;28;20050;-71
2023/07/10 00:12:16;;;;;;;6.88;2.15;;;;;;;;;;5223669;28;20037;-71
2023/07/10 00:14:46;;;;;;;5.90;2.35;;;;;;;;;;5226900;28;20467;-70
2023/07/10 00:17:17;;;;;;;5.03;2.22;;;;;;;;;;5227228;28;20063;-70
2023/07/10 00:19:47;;;;;;;5.45;2.15;;;;;;;;;;5227678;28;20017;-70
2023/07/10 00:22:17;;;;;;;8.57;2.38;;;;;;;;;;5227639;28;20021;-70
2023/07/10 00:24:47;;;;;;;5.95;2.25;;;;;;;;;;5227340;28;20040;-70
2023/07/10 00:27:18;;;;;;;5.60;2.70;;;;;;;;;;5227408;28;20052;-70
2023/07/10 00:29:48;;;;;;;6.45;2.13;;;;;;;;;;5227891;28;20025;-70
2023/07/10 00:32:18;;;;;;;8.85;2.75;;;;;;;;;;5227746;28;20131;-70
2023/07/10 00:34:49;;;;;;;9.27;1.80;;;;;;;;;;5227278;28;20027;-70
2023/07/10 00:37:19;;;;;;;11.10;2.50;;;;;;;;;;5226906;28;20021;-70
2023/07/10 00:39:49;;;;;;;10.13;2.17;;;;;;;;;;5227206;28;20533;-70
2023/07/10 00:42:21;;;;;;;4.65;2.25;;;;;;;;;;5227435;28;20028;-70
2023/07/10 00:45:07;;;;;;;6.85;2.60;;;;;;;;;;5227311;28;20036;-70
2023/07/10 00:47:39;;;;;;;8.25;2.67;;;;;;;;;;5226524;28;20390;-70
2023/07/10 00:50:10;;;;;;;7.50;3.08;;;;;;;;;;5227193;28;20028;-70
2023/07/10 00:52:42;;;;;;;8.93;2.80;;;;;;;;;;5227335;28;20462;-70
2023/07/10 00:55:28;;;;;;;9.65;2.97;;;;;;;;;;5221217;28;20663;-70
2023/07/10 00:58:18;;;;;;;7.90;2.83;;;;;;;;;;5220380;28;20057;-70
2023/07/10 01:01:07;;;;;;;8.85;3.20;;;;;;;;;;5227007;28;20466;-71
2023/07/10 01:03:39;;;;;;;12.68;2.47;;;;;;;;;;5214907;28;20083;-70
2023/07/10 01:06:24;;;;;;;7.57;2.78;;;;;;;;;;5226683;28;20013;-70
2023/07/10 01:09:00;;;;;;;8.75;3.35;;;;;;;;;;5226593;28;20028;-70
2023/07/10 01:11:31;;;;;;;6.90;3.03;;;;;;;;;;5226877;28;20024;-70
2023/07/10 01:14:03;;;;;;;8.73;2.97;;;;;;;;;;5226811;28;20020;-70
2023/07/10 01:16:33;;;;;;;8.98;3.00;;;;;;;;;;5225786;28;20471;-70
2023/07/10 01:19:04;;;;;;;8.73;3.00;;;;;;;;;;5226371;28;20025;-70
2023/07/10 01:21:37;;;;;;;11.35;3.75;;;;;;;;;;5226511;28;20013;-70
2023/07/10 01:24:08;;;;;;;6.95;3.03;;;;;;;;;;5226163;28;20465;-69
2023/07/10 01:26:39;;;;;;;8.65;3.53;;;;;;;;;;5226219;28;20059;-70
2023/07/10 01:29:28;;;;;;;11.00;3.00;;;;;;;;;;5225867;28;20021;-70
2023/07/10 01:31:59;;;;;;;9.35;3.33;;;;;;;;;;5226333;28;20017;-70
2023/07/10 01:34:34;;;;;;;8.27;3.25;;;;;;;;;;5226286;28;20017;-70
2023/07/10 01:37:05;;;;;;;7.95;3.80;;;;;;;;;;5225932;28;20356;-70
2023/07/10 01:39:52;;;;;;;9.30;2.53;;;;;;;;;;5226037;28;20104;-70
2023/07/10 01:42:22;;;;;;;7.47;3.00;;;;;;;;;;5226041;28;20032;-69
2023/07/10 01:44:53;;;;;;;11.50;3.05;;;;;;;;;;5226130;28;20100;-70
2023/07/10 01:47:23;;;;;;;6.38;3.13;;;;;;;;;;5225662;28;20025;-70
2023/07/10 01:49:56;;;;;;;6.30;3.10;;;;;;;;;;5225371;28;20024;-70
2023/07/10 01:52:26;;;;;;;7.60;3.35;;;;;;;;;;5225892;28;20032;-70
2023/07/10 01:54:57;;;;;;;7.10;3.45;;;;;;;;;;5222136;28;20018;-69
2023/07/10 01:57:27;;;;;;;8.57;3.50;;;;;;;;;;5215799;28;20096;-69
2023/07/10 01:59:58;;;;;;;8.35;3.38;;;;;;;;;;5225601;28;20037;-70
2023/07/10 02:02:28;;;;;;;8.05;3.08;;;;;;;;;;5225353;28;20108;-70
2023/07/10 02:04:58;;;;;;;8.07;3.05;;;;;;;;;;5225579;28;20474;-70
2023/07/10 02:07:28;;;;;;;11.70;3.95;;;;;;;;;;5225136;28;20036;-70
2023/07/10 02:09:59;;;;;;;11.35;3.97;;;;;;;;;;5225122;28;20047;-69
2023/07/10 02:12:29;;;;;;;10.07;3.00;;;;;;;;;;5225394;28;20021;-70
2023/07/10 02:14:59;;;;;;;7.85;3.45;;;;;;;;;;5225138;28;20021;-70
2023/07/10 02:17:30;;;;;;;9.00;2.80;;;;;;;;;;5225027;28;20013;-70
2023/07/10 02:20:01;;;;;;;9.98;3.40;;;;;;;;;;5225571;28;20533;-70
2023/07/10 02:22:31;;;;;;;7.22;3.40;;;;;;;;;;5225058;28;20020;-70
2023/07/10 02:25:02;;;;;;;6.38;3.30;;;;;;;;;;5225259;28;20028;-70
2023/07/10 02:27:32;;;;;;;8.20;3.65;;;;;;;;;;5224228;28;20239;-70
2023/07/10 02:30:03;;;;;;;7.35;3.15;;;;;;;;;;5224949;28;20017;-70
2023/07/10 02:32:33;;;;;;;8.75;3.42;;;;;;;;;;5225131;28;20024;-70
2023/07/10 02:35:03;;;;;;;9.60;3.90;;;;;;;;;;5224885;28;20479;-70
2023/07/10 02:37:33;;;;;;;8.02;3.95;;;;;;;;;;5223890;28;20025;-70
2023/07/10 02:40:04;;;;;;;5.85;3.45;;;;;;;;;;5225195;28;20024;-70
2023/07/10 02:42:34;;;;;;;6.22;3.05;;;;;;;;;;5224934;28;20107;-70
2023/07/10 02:45:05;;;;;;;11.25;4.03;;;;;;;;;;5224944;28;20029;-70
2023/07/10 02:47:35;;;;;;;5.20;3.13;;;;;;;;;;5224223;28;20382;-70
2023/07/10 02:50:09;;;;;;;8.85;3.50;;;;;;;;;;5225080;28;20017;-70
2023/07/10 02:52:39;;;;;;;5.10;3.10;;;;;;;;;;5224478;28;20079;-70
2023/07/10 02:55:09;;;;;;;6.38;3.35;;;;;;;;;;5219454;28;20030;-70
2023/07/10 02:57:39;;;;;;;11.45;3.55;;;;;;;;;;5216530;28;20040;-70
2023/07/10 03:00:10;;;;;;;7.72;3.40;;;;;;;;;;5224825;28;20425;-69
2023/07/10 03:02:41;;;;;;;9.02;3.33;;;;;;;;;;5224421;28;20048;-70
2023/07/10 03:05:11;;;;;;;8.68;3.45;;;;;;;;;;5224246;28;20033;-70
2023/07/10 03:07:42;;;;;;;10.15;3.53;;;;;;;;;;5223961;28;20500;-70
2023/07/10 03:10:12;;;;;;;9.95;3.70;;;;;;;;;;5224411;28;20033;-70
2023/07/10 03:12:42;;;;;;;7.95;3.58;;;;;;;;;;5224824;28;20348;-70
2023/07/10 03:15:13;;;;;;;9.52;3.78;;;;;;;;;;5224506;28;20479;-70
2023/07/10 03:17:43;;;;;;;6.35;3.67;;;;;;;;;;5223412;28;20324;-70
2023/07/10 03:20:13;;;;;;;6.20;4.03;;;;;;;;;;5224415;28;20017;-70
2023/07/10 03:22:44;;;;;;;7.68;4.07;;;;;;;;;;5224434;28;20021;-70
2023/07/10 03:25:14;;;;;;;5.20;2.40;;;;;;;;;;5223192;28;20466;-70
2023/07/10 03:27:46;;;;;;;17.45;3.38;;;;;;;;;;5223717;28;20048;-69
2023/07/10 03:30:16;;;;;;;6.65;2.97;;;;;;;;;;5224180;28;20017;-70
2023/07/10 03:32:47;;;;;;;6.10;2.97;;;;;;;;;;5224250;28;20021;-70
2023/07/10 03:35:17;;;;;;;7.85;4.38;;;;;;;;;;5224001;28;20021;-70
2023/07/10 03:37:47;;;;;;;8.63;3.97;;;;;;;;;;5224015;28;20103;-70
2023/07/10 03:40:18;;;;;;;7.47;4.03;;;;;;;;;;5223963;28;20028;-70
2023/07/10 03:42:48;;;;;;;8.18;4.50;;;;;;;;;;5224397;28;20455;-69
2023/07/10 03:45:18;;;;;;;8.07;4.43;;;;;;;;;;5224365;28;20079;-70
2023/07/10 03:47:48;;;;;;;10.48;4.30;;;;;;;;;;5225539;28;20035;-70
2023/07/10 03:50:19;;;;;;;9.75;4.03;;;;;;;;;;5228142;28;20478;-70
2023/07/10 03:52:49;;;;;;;10.73;4.32;;;;;;;;;;5227833;28;20100;-70
2023/07/10 03:55:19;;;;;;;8.90;4.40;;;;;;;;;;5221551;28;20429;-70
2023/07/10 03:57:49;;;;;;;8.65;4.03;;;;;;;;;;5220862;28;20053;-70
2023/07/10 04:00:20;;;;;;;8.50;4.45;;;;;;;;;;5228143;28;20021;-70
2023/07/10 04:02:50;;;;;;;10.43;4.43;;;;;;;;;;5228093;28;20223;-70
2023/07/10 04:05:20;;;;;;;10.23;4.63;;;;;;;;;;5227627;28;20509;-70
2023/07/10 04:07:51;;;;;;;11.60;4.00;;;;;;;;;;5227470;28;20021;-70
2023/07/10 04:10:21;;;;;;;7.57;4.28;;;;;;;;;;5227798;28;20020;-70
2023/07/10 04:12:51;;;;;;;8.93;4.55;;;;;;;;;;5227677;28;20025;-70
2023/07/10 04:15:21;;;;;;;10.60;3.97;;;;;;;;;;5227800;28;20530;-71
2023/07/10 04:17:52;;;;;;;10.63;4.32;;;;;;;;;;5226610;28;20040;-70
2023/07/10 04:20:22;;;;;;;8.00;4.65;;;;;;;;;;5227775;28;20017;-71
2023/07/10 04:22:52;;;;;;;6.63;3.90;;;;;;;;;;5227413;28;20051;-69
2023/07/10 04:25:22;;;;;;;8.10;3.83;;;;;;;;;;5227406;28;20021;-70
2023/07/10 04:27:53;;;;;;;8.27;4.93;;;;;;;;;;5227266;28;20021;-70
2023/07/10 04:30:23;;;;;;;12.77;4.75;;;;;;;;;;5227055;28;20370;-70
2023/07/10 04:32:54;;;;;;;8.82;5.28;;;;;;;;;;5227406;28;20064;-70
2023/07/10 04:35:24;;;;;;;9.18;4.50;;;;;;;;;;5227163;28;20014;-70
2023/07/10 04:37:54;;;;;;;14.65;5.90;;;;;;;;;;5227202;28;20378;-69
2023/07/10 04:40:24;;;;;;;9.20;6.10;;;;;;;;;;5227582;28;20029;-70
2023/07/10 04:42:55;;;;;;;16.42;6.47;;;;;;;;;;5226976;28;20021;-69
2023/07/10 04:45:25;;;;;;;11.88;5.45;;;;;;;;;;5227084;28;20538;-70
2023/07/10 04:47:56;;;;;;;10.73;6.60;;;;;;;;;;5226405;28;20020;-70
2023/07/10 04:50:26;;;;;;;15.57;6.57;;;;;;;;;;5227149;28;20025;-70
2023/07/10 04:52:56;;;;;;;17.48;6.75;;;;;;;;;;5227053;28;20017;-70
2023/07/10 04:55:26;;;;;;;16.48;7.30;;;;;;;;;;5226007;28;20039;-70
2023/07/10 04:57:57;;;;;;;17.98;7.45;;;;;;;;;;5226515;28;20020;-70
2023/07/10 05:00:27;;;;;;;14.20;7.50;;;;;;;;;;5226292;28;20467;-70
2023/07/10 05:02:57;;;;;;;19.83;8.85;;;;;;;;;;5226744;28;20068;-70
2023/07/10 05:05:28;;;;;;;15.63;8.63;;;;;;;;;;5226709;28;20021;-70
2023/07/10 05:07:59;;;;;;;19.77;9.20;;;;;;;;;;5225860;28;20489;-70
2023/07/10 05:10:29;;;;;;;19.30;9.20;;;;;;;;;;5226699;28;20012;-70
2023/07/10 05:12:59;;;;;;;22.33;9.68;;;;;;;;;;5226864;28;20025;-70
2023/07/10 05:15:30;;;;;;;16.02;9.15;;;;;;;;;;5226724;28;20021;-70
2023/07/10 05:18:00;;;;;;;20.67;9.38;;;;;;;;;;5225945;28;20535;-70
2023/07/10 05:20:30;;;;;;;23.40;9.05;;;;;;;;;;5226106;28;20026;-70
2023/07/10 05:23:01;;;;;;;20.35;7.90;;;;;;;;;;5226535;28;20017;-70
2023/07/10 05:25:31;;;;;;;17.90;9.13;;;;;;;;;;5226452;28;20100;-70
2023/07/10 05:28:01;;;;;;;15.70;7.75;;;;;;;;;;5226257;28;20029;-70
2023/07/10 05:30:34;;;;;;;13.57;7.15;;;;;;;;;;5226469;28;20028;-70
2023/07/10 05:33:04;;;;;;;21.05;8.27;;;;;;;;;;5225936;28;20781;-70
2023/07/10 05:35:34;;;;;;;15.85;7.75;;;;;;;;;;5226114;28;20031;-70
2023/07/10 05:38:05;;;;;;;17.02;7.63;;;;;;;;;;5225952;28;20028;-70
2023/07/10 05:40:40;;;;;;;19.33;7.28;;;;;;;;;;5226041;28;20104;-70
2023/07/10 05:43:10;;;;;;;15.13;7.57;;;;;;;;;;5225987;28;20017;-70
2023/07/10 05:45:40;;;;;;;23.58;7.13;;;;;;;;;;5225607;28;20501;-70
2023/07/10 05:48:11;;;;;;;13.48;6.75;;;;;;;;;;5225593;28;20359;-70
2023/07/10 05:50:43;;;;;;;13.38;6.68;;;;;;;;;;5226337;28;20062;-70
2023/07/10 05:53:13;;;;;;;19.23;6.90;;;;;;;;;;5225802;28;20443;-70
2023/07/10 05:55:45;;;;;;;14.82;6.40;;;;;;;;;;5224836;28;20096;-70
2023/07/10 05:58:15;;;;;;;14.77;6.22;;;;;;;;;;5225533;28;20021;-70
2023/07/10 06:00:47;;;;;;;15.70;5.72;;;;;;;;;;5225637;28;20040;-70
2023/07/10 06:03:18;;;;;;;10.65;5.65;;;;;;;;;;5225624;28;20029;-70
2023/07/10 06:06:07;;;;;;;12.77;6.57;;;;;;;;;;5225373;28;20021;-71
2023/07/10 06:08:37;;;;;;;8.60;4.50;;;;;;;;;;5225326;28;20017;-71
2023/07/10 06:11:08;;;;;;;10.18;4.63;;;;;;;;;;5225299;28;20378;-71
2023/07/10 06:13:38;;;;;;;10.43;4.07;;;;;;;;;;5225599;28;20060;-70
2023/07/10 06:16:08;;;;;;;10.32;3.80;;;;;;;;;;5224677;28;20547;-71
2023/07/10 06:18:39;;;;;;;7.72;3.80;;;;;;;;;;5225372;28;20028;-70
2023/07/10 06:21:10;;;;;;;6.32;3.47;;;;;;;;;;5225244;28;20025;-71
2023/07/10 06:23:40;;;;;;;12.85;3.65;;;;;;;;;;5225440;28;20021;-71
2023/07/10 06:26:11;;;;;;;10.15;3.47;;;;;;;;;;5224780;28;20390;-71
2023/07/10 06:28:41;;;;;;;9.02;3.53;;;;;;;;;;5224885;28;20425;-71
2023/07/10 06:31:11;;;;;;;7.72;2.55;;;;;;;;;;5224881;28;20518;-71
2023/07/10 06:33:41;;;;;;;8.77;3.47;;;;;;;;;;5225054;28;20474;-71
2023/07/10 06:36:12;;;;;;;7.63;2.88;;;;;;;;;;5224798;28;20289;-71
2023/07/10 06:38:42;;;;;;;7.03;2.55;;;;;;;;;;5225331;28;20075;-71
2023/07/10 06:41:13;;;;;;;9.53;2.90;;;;;;;;;;5225086;28;20044;-71
2023/07/10 06:43:43;;;;;;;10.80;3.72;;;;;;;;;;5223340;28;20628;-71
2023/07/10 06:46:14;;;;;;;6.07;2.40;;;;;;;;;;5224449;28;20025;-71
2023/07/10 06:48:45;;;;;;;6.82;2.80;;;;;;;;;;5224651;28;21048;-71
2023/07/10 06:51:15;;;;;;;7.68;2.85;;;;;;;;;;5224987;28;20112;-71
2023/07/10 06:53:45;;;;;;;5.33;2.30;;;;;;;;;;5224706;28;20415;-71
2023/07/10 06:56:16;;;;;;;7.03;2.28;;;;;;;;;;5210743;28;20314;-72
2023/07/10 06:58:46;;;;;;;4.80;1.80;;;;;;;;;;5224681;28;20127;-72
2023/07/10 07:01:16;;;;;;;6.32;2.35;;;;;;;;;;5224488;28;20279;-72
2023/07/10 07:03:47;;;;;;;4.32;1.77;;;;;;;;;;5224767;28;20429;-71
2023/07/10 07:06:17;;;;;;;10.03;2.17;;;;;;;;;;5224185;28;20075;-71
2023/07/10 07:08:48;;;;;;;4.93;1.95;;;;;;;;;;5223966;28;20298;-72
2023/07/10 07:11:19;;;;;;;8.93;2.00;;;;;;;;;;5224367;28;20382;-71
2023/07/10 07:13:49;;;;;;;6.47;1.95;;;;;;;;;;5224671;28;20017;-71
2023/07/10 07:16:19;;;;;;;5.53;2.00;;;;;;;;;;5223822;28;20024;-72
2023/07/10 07:18:51;;;;;;;7.90;2.37;;;;;;;;;;5224336;28;20629;-72
2023/07/10 07:21:21;;;;;;;6.60;2.00;;;;;;;;;;5224112;28;20275;-72
2023/07/10 07:23:51;;;;;;;7.67;2.33;;;;;;;;;;5223957;28;20032;-72
2023/07/10 07:26:24;;;;;;;14.40;2.40;;;;;;;;;;5224147;28;20302;-71
2023/07/10 07:28:54;;;;;;;7.18;2.28;;;;;;;;;;5224069;28;20064;-71
2023/07/10 07:31:24;;;;;;;7.13;1.93;;;;;;;;;;5224521;28;20467;-72
2023/07/10 07:33:54;;;;;;;5.30;2.00;;;;;;;;;;5223542;28;20305;-71
2023/07/10 07:36:25;;;;;;;7.30;2.27;;;;;;;;;;5223985;28;20467;-72
2023/07/10 07:38:55;;;;;;;7.85;2.20;;;;;;;;;;5224184;28;20347;-72
2023/07/10 07:41:25;;;;;;;6.87;1.90;;;;;;;;;;5224411;28;20112;-72
2023/07/10 07:43:56;;;;;;;8.73;2.30;;;;;;;;;;5224198;28;20274;-72
2023/07/10 07:46:26;;;;;;;8.57;2.00;;;;;;;;;;5223467;28;20346;-72
2023/07/10 07:48:56;;;;;;;7.68;1.92;;;;;;;;;;5222591;28;20335;-72
2023/07/10 07:51:27;;;;;;;7.43;2.10;;;;;;;;;;5224086;28;20021;-71
2023/07/10 07:54:11;;;;;;;8.30;2.03;;;;;;;;;;5224112;28;20063;-72
2023/07/10 07:56:41;;;;;;;10.30;2.23;;;;;;;;;;5206809;28;20314;-72
2023/07/10 07:59:12;;;;;;;8.13;1.93;;;;;;;;;;5223979;28;20052;-72
2023/07/10 08:01:42;;;;;;;4.90;1.90;;;;;;;;;;5223847;28;20271;-72
2023/07/10 08:04:12;;;;;;;8.67;1.83;;;;;;;;;;5224084;28;20082;-72
2023/07/10 08:06:42;;;;;;;8.70;1.95;;;;;;;;;;5223339;28;20295;-72
2023/07/10 08:09:13;;;;;;;10.10;2.22;;;;;;;;;;5223804;28;20537;-72
2023/07/10 08:11:43;;;;;;;7.30;2.00;;;;;;;;;;5223991;28;20025;-72
2023/07/10 08:14:14;;;;;;;8.90;1.90;;;;;;;;;;5223784;28;20100;-71
2023/07/10 08:16:44;;;;;;;4.18;1.63;;;;;;;;;;5223583;28;20009;-72
2023/07/10 08:19:15;;;;;;;10.87;1.73;;;;;;;;;;5223692;28;20036;-72
2023/07/10 08:21:45;;;;;;;7.03;1.63;;;;;;;;;;5223591;28;20294;-72
2023/07/10 08:24:16;;;;;;;7.32;1.80;;;;;;;;;;5223825;28;20263;-72
2023/07/10 08:26:46;;;;;;;4.37;1.77;;;;;;;;;;5223893;28;20029;-72
2023/07/10 08:29:35;;;;;;;7.10;1.60;;;;;;;;;;5223642;28;20315;-72
2023/07/10 08:32:06;;;;;;;5.80;1.90;;;;;;;;;;5223427;28;20354;-72
2023/07/10 08:34:36;;;;;;;5.80;2.20;;;;;;;;;;5225190;28;20084;-72
2023/07/10 08:37:06;;;;;;;3.20;1.48;;;;;;;;;;5227285;28;20028;-72
2023/07/10 08:39:37;;;;;;;6.97;1.90;;;;;;;;;;5227465;28;20506;-72
2023/07/10 08:42:14;;;;;;;11.00;2.57;;;;;;;;;;5227660;28;20259;-72
2023/07/10 08:44:47;;;;;;;5.80;1.60;;;;;;;;;;5226828;28;20259;-72
2023/07/10 08:47:20;;;;;;;8.20;1.80;;;;;;;;;;5226808;28;20075;-72
2023/07/10 08:49:54;;;;;;;8.80;1.58;;;;;;;;;;5226825;28;20025;-72
2023/07/10 08:52:38;;;;;;;7.13;1.40;;;;;;;;;;5227261;28;20474;-72
2023/07/10 08:55:27;;;;;;;6.70;1.48;;;;;;;;;;5221386;28;20027;-72
2023/07/10 08:57:59;;;;;;;7.95;1.90;;;;;;;;;;5221189;28;20094;-72
2023/07/10 09:00:32;;;;;;;6.43;1.60;;;;;;;;;;5227031;28;20021;-72
2023/07/10 09:03:02;;;;;;;8.63;1.85;;;;;;;;;;5227333;28;20474;-72
2023/07/10 09:05:34;;;;;;;6.23;1.73;;;;;;;;;;5226392;28;20043;-72
2023/07/10 09:08:06;;;;;;;9.18;1.80;;;;;;;;;;5226577;28;20378;-72
2023/07/10 09:10:40;;;;;;;6.15;1.70;;;;;;;;;;5226809;28;20021;-71
2023/07/10 09:13:26;;;;;;;7.15;1.50;;;;;;;;;;5226601;28;20040;-72
2023/07/10 09:15:57;;;;;;;6.78;1.73;;;;;;;;;;5225712;28;20076;-72
2023/07/10 09:18:46;;;;;;;4.32;1.40;;;;;;;;;;5226312;28;20032;-72
2023/07/10 09:21:18;;;;;;;7.60;1.58;;;;;;;;;;5226544;28;20025;-72
2023/07/10 09:23:48;;;;;;;5.22;1.38;;;;;;;;;;5226425;28;20116;-72
2023/07/10 09:26:20;;;;;;;13.13;1.88;;;;;;;;;;5225775;28;20056;-73
2023/07/10 09:29:06;;;;;;;7.78;1.67;;;;;;;;;;5226177;28;20021;-72
2023/07/10 09:31:55;;;;;;;5.70;1.52;;;;;;;;;;5226687;28;20021;-73
2023/07/10 09:34:27;;;;;;;5.60;1.63;;;;;;;;;;5226466;28;20013;-72
2023/07/10 09:36:58;;;;;;;5.63;1.75;;;;;;;;;;5225742;28;20024;-72
2023/07/10 09:39:31;;;;;;;7.05;1.60;;;;;;;;;;5226255;28;20032;-72
2023/07/10 09:42:02;;;;;;;8.35;1.90;;;;;;;;;;5226167;28;20029;-72
2023/07/10 09:44:34;;;;;;;3.75;1.55;;;;;;;;;;5226232;28;20048;-72
2023/07/10 09:47:20;;;;;;;6.22;1.40;;;;;;;;;;5225105;28;20525;-73
2023/07/10 09:49:53;;;;;;;3.13;1.40;;;;;;;;;;5225815;28;20025;-72
2023/07/10 09:52:24;;;;;;;4.93;1.40;;;;;;;;;;5226339;28;20459;-73
2023/07/10 09:55:13;;;;;;;11.93;2.17;;;;;;;;;;5222322;28;20021;-72
2023/07/10 09:57:53;;;;;;;6.30;1.52;;;;;;;;;;5218075;28;20411;-72
2023/07/10 10:00:24;;;;;;;5.47;1.70;;;;;;;;;;5213460;28;20035;-72
2023/07/10 10:02:55;;;;;;;6.30;1.50;;;;;;;;;;5224535;28;20033;-72
2023/07/10 10:05:25;;;;;;;9.53;1.83;;;;;;;;;;5225740;28;20482;-73
2023/07/10 10:08:14;;;;;;;7.68;1.52;;;;;;;;;;5225377;28;20262;-73
2023/07/10 10:10:44;;;;;;;3.60;1.30;;;;;;;;;;5225210;28;20036;-73
2023/07/10 10:13:31;;;;;;;4.80;1.40;;;;;;;;;;5225528;28;20018;-73
2023/07/10 10:16:06;;;;;;;7.72;1.70;;;;;;;;;;5223718;28;20263;-73
2023/07/10 10:18:36;;;;;;;;;;;;;;;;;;5225300;28;20021;-73
2023/07/10 10:21:09;;;;;;;5.07;1.90;;;;;;;;;;5225470;28;19905;-72
2023/07/10 10:23:41;;;;;;;4.53;1.23;;;;;;;;;;5225381;28;20032;-73
2023/07/10 10:26:27;;;;;;;8.25;1.92;;;;;;;;;;5224635;28;20108;-73
2023/07/10 10:29:16;;;;;;;5.57;1.67;;;;;;;;;;5224752;28;20025;-72
2023/07/10 10:31:52;;;;;;;5.50;1.50;;;;;;;;;;5225275;28;20041;-73
2023/07/10 10:34:22;;;;;;;8.93;2.05;;;;;;;;;;5225162;28;20016;-73
2023/07/10 10:37:02;;;;;;;7.07;1.70;;;;;;;;;;5224453;28;20367;-73
2023/07/10 10:39:48;;;;;;;4.80;1.70;;;;;;;;;;5225262;28;20025;-73
2023/07/10 10:42:32;;;;;;;8.75;1.90;;;;;;;;;;5224921;28;20025;-73
2023/07/10 10:45:10;;;;;;;6.85;1.75;;;;;;;;;;5224899;28;20374;-73
2023/07/10 10:47:45;;;;;;;7.43;1.83;;;;;;;;;;5224127;28;20032;-73
2023/07/10 10:50:34;;;;;;;8.20;2.17;;;;;;;;;;5224720;28;20043;-73
2023/07/10 10:53:05;;;;;;;4.82;1.42;;;;;;;;;;5224968;28;20025;-73
2023/07/10 10:55:54;;;;;;;4.65;1.73;;;;;;;;;;5208133;28;20020;-73
2023/07/10 10:58:34;;;;;;;6.43;1.75;;;;;;;;;;5222151;28;20398;-73
2023/07/10 11:01:13;;;;;;;5.13;1.63;;;;;;;;;;5224832;28;20053;-73
2023/07/10 11:03:46;;;;;;;2.40;1.33;;;;;;;;;;5224944;28;20029;-73
2023/07/10 11:06:16;;;;;;;7.85;1.73;;;;;;;;;;5223810;28;20017;-72
2023/07/10 11:08:49;;;;;;;4.50;1.40;;;;;;;;;;5224461;28;20087;-73
2023/07/10 11:11:22;;;;;;;5.00;1.48;;;;;;;;;;5224577;28;20652;-73
2023/07/10 11:13:52;;;;;;;6.80;1.90;;;;;;;;;;5224767;28;20017;-72
2023/07/10 11:16:24;;;;;;;5.03;1.65;;;;;;;;;;5224539;28;20066;-72
2023/07/10 11:18:54;;;;;;;4.18;1.50;;;;;;;;;;5223447;28;20032;-75
2023/07/10 11:21:25;;;;;;;4.97;1.58;;;;;;;;;;5224973;28;20096;-72
2023/07/10 11:23:55;;;;;;;4.28;1.85;;;;;;;;;;5224561;28;20029;-73
2023/07/10 11:26:26;;;;;;;5.83;1.63;;;;;;;;;;5224076;28;20037;-72
2023/07/10 11:28:58;;;;;;;7.00;1.88;;;;;;;;;;5224180;28;20281;-73
2023/07/10 11:31:30;;;;;;;8.20;2.33;;;;;;;;;;5224249;28;20028;-73
2023/07/10 11:34:17;;;;;;;6.30;2.10;;;;;;;;;;5224353;28;20051;-73
2023/07/10 11:36:47;;;;;;;9.90;2.17;;;;;;;;;;5223698;28;20021;-73
2023/07/10 11:39:20;;;;;;;7.60;2.03;;;;;;;;;;5224306;28;20032;-72
2023/07/10 11:41:50;;;;;;;4.43;1.90;;;;;;;;;;5223826;28;20754;-73
2023/07/10 11:44:20;;;;;;;7.70;1.97;;;;;;;;;;5224333;28;20025;-73
2023/07/10 11:47:09;;;;;;;6.83;1.73;;;;;;;;;;5224109;28;20346;-73
2023/07/10 11:49:40;;;;;;;8.50;1.77;;;;;;;;;;5223879;28;20370;-73
2023/07/10 11:52:11;;;;;;;6.55;1.80;;;;;;;;;;5223853;28;20017;-73
2023/07/10 11:55:00;;;;;;;7.72;2.33;;;;;;;;;;5222527;28;20013;-73
2023/07/10 11:57:33;;;;;;;5.32;1.70;;;;;;;;;;5214479;28;20387;-73
2023/07/10 12:00:18;;;;;;;7.63;1.63;;;;;;;;;;5223911;28;20039;-72
2023/07/10 12:02:51;;;;;;;6.35;1.67;;;;;;;;;;5223695;28;20514;-73
2023/07/10 12:05:25;;;;;;;9.73;1.90;;;;;;;;;;5224001;28;20039;-73
2023/07/10 12:07:55;;;;;;;4.05;1.70;;;;;;;;;;5223798;28;20036;-73
2023/07/10 12:10:27;;;;;;;6.47;2.10;;;;;;;;;;5227916;28;20020;-72
2023/07/10 12:12:59;;;;;;;9.10;1.90;;;;;;;;;;5227757;28;20263;-73
2023/07/10 12:15:30;;;;;;;7.07;1.85;;;;;;;;;;5227777;28;20130;-73
2023/07/10 12:18:00;;;;;;;6.80;1.60;;;;;;;;;;5227220;28;20017;-73
2023/07/10 12:20:32;;;;;;;7.07;2.27;;;;;;;;;;5227809;28;20025;-73
2023/07/10 12:23:05;;;;;;;3.72;1.42;;;;;;;;;;5227862;28;20598;-73
2023/07/10 12:25:35;;;;;;;5.80;2.00;;;;;;;;;;5227356;28;20024;-73
2023/07/10 12:28:12;;;;;;;7.50;2.08;;;;;;;;;;5227557;28;20424;-73
2023/07/10 12:30:46;;;;;;;5.20;1.80;;;;;;;;;;5227835;28;20017;-73
2023/07/10 12:33:26;;;;;;;6.33;1.87;;;;;;;;;;5227649;28;20021;-73
2023/07/10 12:36:06;;;;;;;11.10;2.22;;;;;;;;;;5226630;28;20453;-73
2023/07/10 12:38:36;;;;;;;5.50;1.55;;;;;;;;;;5227124;28;20017;-73
2023/07/10 12:41:07;;;;;;;3.75;1.45;;;;;;;;;;5227413;28;20116;-73
2023/07/10 12:43:37;;;;;;;4.93;1.50;;;;;;;;;;5227301;28;20032;-73
2023/07/10 12:46:27;;;;;;;8.00;1.90;;;;;;;;;;5226570;28;20466;-73
2023/07/10 12:49:00;;;;;;;6.90;1.65;;;;;;;;;;5226968;28;20024;-72
2023/07/10 12:51:33;;;;;;;5.18;2.00;;;;;;;;;;5227006;28;20049;-73
2023/07/10 12:54:11;;;;;;;5.57;1.50;;;;;;;;;;5227516;28;20024;-73
2023/07/10 12:56:41;;;;;;;5.20;1.50;;;;;;;;;;5226265;28;20438;-73
2023/07/10 12:59:11;;;;;;;5.63;1.55;;;;;;;;;;5227035;28;20116;-73
2023/07/10 13:04:50;;;;;;;6.00;1.60;;;;;;;;;;5226745;28;20276;-73
2023/07/10 13:07:21;;;;;;;8.82;2.10;;;;;;;;;;5225053;28;20031;-73
2023/07/10 13:09:53;;;;;;;5.68;1.33;;;;;;;;;;5226457;28;20021;-73
2023/07/10 13:12:26;;;;;;;7.80;1.65;;;;;;;;;;5226724;28;20016;-74
2023/07/10 13:14:58;;;;;;;5.43;1.80;;;;;;;;;;5226719;28;20019;-74
2023/07/10 13:17:30;;;;;;;7.13;1.67;;;;;;;;;;5224335;28;20024;-74
2023/07/10 13:20:00;;;;;;;10.35;1.63;;;;;;;;;;5226305;28;20021;-74
2023/07/10 13:22:30;;;;;;;3.40;1.70;;;;;;;;;;5226659;28;20382;-74
2023/07/10 13:25:05;;;;;;;3.33;1.55;;;;;;;;;;5225448;28;20331;-74
2023/07/10 13:27:35;;;;;;;8.10;2.10;;;;;;;;;;5226019;28;20364;-74
2023/07/10 13:30:14;;;;;;;4.13;1.90;;;;;;;;;;5226043;28;20538;-73
2023/07/10 13:32:45;;;;;;;7.75;1.90;;;;;;;;;;5226346;28;20648;-74
2023/07/10 13:35:16;;;;;;;4.82;2.00;;;;;;;;;;5226202;28;20017;-74
2023/07/10 13:37:46;;;;;;;4.88;1.73;;;;;;;;;;5226077;28;20538;-74
2023/07/10 13:40:19;;;;;;;5.07;1.40;;;;;;;;;;5225920;28;20119;-73
2023/07/10 13:42:49;;;;;;;5.18;1.98;;;;;;;;;;5226289;28;20021;-73
2023/07/10 13:45:20;;;;;;;9.05;1.70;;;;;;;;;;5226068;28;20048;-73
2023/07/10 13:47:50;;;;;;;6.70;1.88;;;;;;;;;;5225776;28;20017;-73
2023/07/10 13:50:20;;;;;;;6.63;2.35;;;;;;;;;;5226283;28;20397;-73
2023/07/10 13:52:51;;;;;;;5.53;1.80;;;;;;;;;;5225664;28;20029;-73
2023/07/10 13:55:21;;;;;;;6.38;2.00;;;;;;;;;;5218932;28;20017;-73
2023/07/10 13:57:51;;;;;;;7.97;1.90;;;;;;;;;;5217656;28;20024;-73
2023/07/10 14:00:22;;;;;;;5.35;1.60;;;;;;;;;;5225879;28;20486;-73
2023/07/10 14:02:55;;;;;;;2.97;1.80;;;;;;;;;;5225574;28;20025;-73
2023/07/10 14:05:25;;;;;;;6.25;1.92;;;;;;;;;;5225377;28;20071;-73
2023/07/10 14:07:55;;;;;;;8.32;2.22;;;;;;;;;;5225308;28;20029;-73
2023/07/10 14:10:25;;;;;;;4.70;1.67;;;;;;;;;;5225534;28;20025;-73
2023/07/10 14:12:56;;;;;;;6.93;1.83;;;;;;;;;;5225464;28;20457;-73
2023/07/10 14:15:26;;;;;;;5.35;1.85;;;;;;;;;;5225422;28;20035;-73
2023/07/10 14:17:56;;;;;;;6.53;2.22;;;;;;;;;;5224546;28;20021;-73
2023/07/10 14:20:27;;;;;;;5.23;1.63;;;;;;;;;;5225500;28;20029;-73
2023/07/10 14:22:57;;;;;;;5.20;2.00;;;;;;;;;;5225352;28;20622;-73
2023/07/10 14:25:27;;;;;;;6.10;2.00;;;;;;;;;;5225277;28;20021;-73
2023/07/10 14:27:58;;;;;;;4.40;1.83;;;;;;;;;;5225273;28;20025;-73
2023/07/10 14:30:28;;;;;;;3.50;1.80;;;;;;;;;;5224800;28;20739;-73
2023/07/10 14:32:58;;;;;;;5.53;2.10;;;;;;;;;;5224379;28;20271;-73
2023/07/10 14:35:29;;;;;;;5.40;2.30;;;;;;;;;;5224882;28;20629;-73
2023/07/10 14:37:59;;;;;;;6.43;2.00;;;;;;;;;;5224783;28;20291;-72
2023/07/10 14:40:29;;;;;;;7.90;2.05;;;;;;;;;;5225139;28;20021;-73
2023/07/10 14:43:00;;;;;;;7.07;2.07;;;;;;;;;;5224645;28;20021;-73
2023/07/10 14:45:30;;;;;;;7.43;1.95;;;;;;;;;;5224786;28;20267;-73
2023/07/10 14:48:00;;;;;;;6.35;2.70;;;;;;;;;;5224517;28;20442;-73
2023/07/10 14:50:31;;;;;;;3.97;1.83;;;;;;;;;;5224948;28;20028;-73
2023/07/10 14:53:01;;;;;;;6.50;1.80;;;;;;;;;;5224838;28;20009;-73
2023/07/10 14:55:31;;;;;;;3.80;2.00;;;;;;;;;;5215935;28;20272;-73
2023/07/10 14:58:04;;;;;;;11.45;2.20;;;;;;;;;;5218926;28;20040;-73
2023/07/10 15:00:34;;;;;;;7.38;2.30;;;;;;;;;;5224835;28;20057;-73
2023/07/10 15:03:04;;;;;;;4.25;2.03;;;;;;;;;;5224473;28;20052;-72
2023/07/10 15:05:35;;;;;;;6.82;2.15;;;;;;;;;;5224860;28;20033;-72
2023/07/10 15:08:09;;;;;;;6.63;1.98;;;;;;;;;;5222878;28;20028;-73
2023/07/10 15:10:39;;;;;;;5.05;1.67;;;;;;;;;;5224600;28;20029;-73
2023/07/10 15:13:15;;;;;;;5.35;1.70;;;;;;;;;;5225068;28;20021;-73
2023/07/10 15:15:46;;;;;;;5.50;2.13;;;;;;;;;;5224057;28;20023;-73